createdAt,value
2019-03-12T00:04:31.241Z,3.40
2019-03-12T00:09:25.144Z,4.23
2019-03-12T00:14:19.073Z,4.00
2019-03-12T00:19:12.946Z,4.10
2019-03-12T00:24:06.816Z,4.23
2019-03-12T00:29:00.664Z,4.40
2019-03-12T00:33:54.524Z,4.53
2019-03-12T00:38:48.488Z,4.63
2019-03-12T00:43:42.334Z,4.73
2019-03-12T00:48:36.207Z,4.87
2019-03-12T00:53:30.153Z,4.60
2019-03-12T00:58:24.007Z,5.20
2019-03-12T01:03:18.076Z,5.77
2019-03-12T01:08:11.909Z,5.90
2019-03-12T01:13:14.399Z,5.40
2019-03-12T01:18:08.332Z,6.03
2019-03-12T01:23:02.507Z,6.03
2019-03-12T01:27:56.354Z,6.27
2019-03-12T01:32:50.214Z,6.10
2019-03-12T01:37:44.062Z,5.70
2019-03-12T01:42:37.913Z,6.00
2019-03-12T01:47:31.771Z,6.77
2019-03-12T01:52:25.713Z,5.70
2019-03-12T01:57:19.557Z,5.87
2019-03-12T02:02:13.417Z,5.77
2019-03-12T02:07:07.476Z,6.40
2019-03-12T02:12:01.680Z,6.57
2019-03-12T02:16:55.677Z,6.20
2019-03-12T02:21:49.613Z,6.00
2019-03-12T02:26:43.474Z,6.83
2019-03-12T02:31:37.288Z,6.57
2019-03-12T02:36:31.132Z,6.40
2019-03-12T02:41:24.991Z,6.63
2019-03-12T02:46:18.931Z,6.43
2019-03-12T02:51:12.786Z,7.43
2019-03-12T02:56:06.635Z,7.77
2019-03-12T03:01:00.487Z,7.10
2019-03-12T03:05:56.235Z,7.20
2019-03-12T03:10:50.104Z,6.67
2019-03-12T03:15:47.169Z,6.83
2019-03-12T03:20:41.063Z,7.07
2019-03-12T03:25:34.921Z,6.90
2019-03-12T03:30:28.801Z,6.73
2019-03-12T03:35:22.639Z,7.00
2019-03-12T03:40:20.251Z,6.77
2019-03-12T03:45:14.823Z,7.37
2019-03-12T03:50:10.992Z,6.93
2019-03-12T03:55:13.730Z,6.50
2019-03-12T04:00:13.320Z,6.77
2019-03-12T04:05:07.566Z,7.00
2019-03-12T04:10:02.096Z,6.37
2019-03-12T04:14:56.009Z,6.73
2019-03-12T04:19:49.954Z,5.57
2019-03-12T04:24:43.805Z,5.50
2019-03-12T04:29:37.642Z,5.37
2019-03-12T04:34:31.515Z,5.20
2019-03-12T04:39:25.386Z,5.33
2019-03-12T04:44:19.197Z,5.20
2019-03-12T04:49:13.224Z,4.90
2019-03-12T04:54:07.081Z,4.93
2019-03-12T04:59:01.040Z,4.83
2019-03-12T05:03:54.909Z,4.60
2019-03-12T05:08:48.853Z,4.63
2019-03-12T05:13:46.529Z,4.20
2019-03-12T05:18:40.383Z,4.10
2019-03-12T05:23:34.244Z,4.13
2019-03-12T05:28:28.258Z,4.13
2019-03-12T05:33:22.147Z,4.33
2019-03-12T05:38:15.992Z,4.37
2019-03-12T05:43:09.844Z,4.10
2019-03-12T05:48:03.797Z,4.10
2019-03-12T05:53:12.958Z,4.53
2019-03-12T05:58:06.908Z,3.93
2019-03-12T06:03:00.769Z,3.90
2019-03-12T06:07:55.621Z,3.80
2019-03-12T06:12:49.825Z,3.90
2019-03-12T06:17:43.718Z,3.90
2019-03-12T06:22:37.773Z,4.07
2019-03-12T06:27:31.636Z,4.00
2019-03-12T06:32:27.510Z,3.90
2019-03-12T06:37:25.982Z,5.47
2019-03-12T06:42:21.736Z,5.03
2019-03-12T06:47:23.292Z,4.53
2019-03-12T06:52:21.577Z,3.70
2019-03-12T06:57:17.339Z,4.50
2019-03-12T07:02:25.386Z,4.03
2019-03-12T07:07:41.746Z,3.83
2019-03-12T07:12:38.253Z,3.43
2019-03-12T07:17:46.026Z,3.50
2019-03-12T07:22:41.782Z,3.47
2019-03-12T07:27:46.602Z,3.50
2019-03-12T07:32:48.548Z,3.47
2019-03-12T07:37:47.198Z,3.30
2019-03-12T07:42:42.931Z,4.47
2019-03-12T07:47:41.838Z,3.47
2019-03-12T07:52:39.218Z,3.63
2019-03-12T07:57:41.044Z,3.90
2019-03-12T08:02:45.755Z,3.63
2019-03-12T08:07:41.541Z,3.77
2019-03-12T08:12:43.292Z,4.07
2019-03-12T08:17:39.052Z,4.23
2019-03-12T08:22:34.822Z,3.57
2019-03-12T08:27:30.684Z,3.20
2019-03-12T08:32:38.596Z,3.70
2019-03-12T08:37:46.641Z,3.20
2019-03-12T08:42:54.133Z,3.10
2019-03-12T08:47:42.979Z,3.43
2019-03-12T08:52:38.833Z,3.13
2019-03-12T08:57:37.602Z,2.50
2019-03-12T09:02:33.395Z,3.10
2019-03-12T09:07:31.954Z,2.80
2019-03-12T09:12:30.471Z,2.73
2019-03-12T09:17:32.253Z,2.77
2019-03-12T09:22:28.033Z,2.00
2019-03-12T09:27:26.854Z,2.50
2019-03-12T09:32:37.692Z,2.17
2019-03-12T09:37:33.475Z,2.33
2019-03-12T09:42:46.278Z,2.23
2019-03-12T09:47:44.819Z,2.10
2019-03-12T09:52:40.559Z,2.83
2019-03-12T09:57:48.376Z,2.63
2019-03-12T10:02:47.249Z,2.10
2019-03-12T10:07:49.321Z,1.93
2019-03-12T10:12:45.478Z,1.93
2019-03-12T10:17:41.288Z,1.80
2019-03-12T10:22:40.019Z,2.00
2019-03-12T10:27:38.583Z,2.17
2019-03-12T10:32:50.979Z,1.93
2019-03-12T10:37:46.729Z,1.80
2019-03-12T10:43:08.546Z,2.07
2019-03-12T10:48:04.512Z,2.07
2019-03-12T10:52:58.482Z,1.83
2019-03-12T10:57:52.359Z,2.03
2019-03-12T11:02:46.315Z,2.53
2019-03-12T11:07:40.182Z,2.40
2019-03-12T11:12:34.200Z,2.20
2019-03-12T11:17:28.149Z,2.30
2019-03-12T11:22:22.029Z,2.57
2019-03-12T11:27:16.015Z,2.37
2019-03-12T11:32:09.992Z,2.30
2019-03-12T11:37:03.877Z,2.23
2019-03-12T11:41:57.737Z,2.10
2019-03-12T11:46:51.625Z,2.00
2019-03-12T11:51:45.481Z,2.10
2019-03-12T11:56:39.446Z,2.17
2019-03-12T12:01:33.516Z,1.83
2019-03-12T12:06:27.345Z,2.47
2019-03-12T12:11:21.339Z,1.90
2019-03-12T12:16:15.201Z,1.90
2019-03-12T12:21:09.070Z,1.87
2019-03-12T12:26:03.071Z,2.37
2019-03-12T12:30:57.150Z,2.00
2019-03-12T12:35:51.219Z,1.97
2019-03-12T12:40:45.115Z,2.27
2019-03-12T12:45:39.193Z,2.33
2019-03-12T12:50:33.161Z,2.00
2019-03-12T12:55:27.133Z,1.80
2019-03-12T13:00:25.313Z,2.10
2019-03-12T13:05:19.497Z,2.47
2019-03-12T13:10:22.281Z,1.70
2019-03-12T13:15:16.372Z,1.80
2019-03-12T13:20:10.667Z,2.10
2019-03-12T13:25:10.112Z,2.37
2019-03-12T13:30:15.663Z,1.57
2019-03-12T13:35:12.137Z,2.00
2019-03-12T13:40:09.420Z,1.97
2019-03-12T13:45:07.087Z,1.93
2019-03-12T13:50:01.945Z,1.80
2019-03-12T13:54:56.243Z,1.70
2019-03-12T13:59:50.139Z,2.10
2019-03-12T14:04:44.021Z,1.90
2019-03-12T14:09:37.984Z,1.90
2019-03-12T14:14:31.936Z,2.50
2019-03-12T14:19:25.846Z,2.20
2019-03-12T14:24:19.726Z,2.00
2019-03-12T14:29:13.729Z,1.93
2019-03-12T14:34:07.566Z,1.83
2019-03-12T14:39:01.536Z,2.00
2019-03-12T14:43:55.721Z,2.00
2019-03-12T14:48:51.920Z,2.10
2019-03-12T14:53:49.693Z,1.90
2019-03-12T14:58:43.589Z,2.10
2019-03-12T15:03:37.541Z,1.67
2019-03-12T15:08:31.391Z,2.00
2019-03-12T15:13:25.302Z,1.80
2019-03-12T15:18:19.216Z,1.93
2019-03-12T15:23:13.056Z,1.80
2019-03-12T15:28:07.029Z,1.70
2019-03-12T15:33:00.897Z,1.73
2019-03-12T15:37:54.887Z,2.10
2019-03-12T15:42:48.881Z,1.77
2019-03-12T15:47:42.759Z,1.73
2019-03-12T15:52:36.736Z,1.87
2019-03-12T15:57:30.706Z,1.83
2019-03-12T16:02:24.621Z,1.70
2019-03-12T16:07:18.602Z,1.53
2019-03-12T16:12:12.490Z,1.73
2019-03-12T16:17:06.471Z,1.17
2019-03-12T16:22:00.326Z,1.27
2019-03-12T16:26:54.210Z,1.80
2019-03-12T16:31:48.171Z,1.90
2019-03-12T16:36:42.164Z,1.80
2019-03-12T16:41:36.021Z,1.53
2019-03-12T16:46:29.900Z,1.50
2019-03-12T16:51:23.931Z,1.70
2019-03-12T16:56:17.799Z,1.70
2019-03-12T17:01:11.696Z,1.73
2019-03-12T17:06:05.585Z,2.47
2019-03-12T17:11:02.730Z,1.90
2019-03-12T17:15:55.268Z,1.80
2019-03-12T17:20:49.259Z,1.43
2019-03-12T17:25:43.128Z,1.80
2019-03-12T17:30:36.983Z,1.70
2019-03-12T17:35:33.987Z,1.47
2019-03-12T17:40:27.864Z,1.53
2019-03-12T17:45:21.866Z,2.13
2019-03-12T17:50:15.920Z,1.70
2019-03-12T17:55:12.026Z,1.70
2019-03-12T18:00:28.060Z,1.97
2019-03-12T18:05:21.435Z,1.53
2019-03-12T18:10:16.548Z,1.93
2019-03-12T18:15:19.023Z,1.70
2019-03-12T18:20:16.735Z,1.80
2019-03-12T18:25:29.355Z,1.62
2019-03-12T18:30:23.235Z,1.87
2019-03-12T18:35:17.303Z,1.83
2019-03-12T18:40:16.325Z,1.60
2019-03-12T18:45:16.442Z,2.00
2019-03-12T18:50:12.701Z,1.97
2019-03-12T18:55:10.327Z,1.80
2019-03-12T19:00:08.163Z,1.43
2019-03-12T19:05:03.717Z,1.70
2019-03-12T19:09:57.649Z,2.30
2019-03-12T19:14:51.673Z,2.33
2019-03-12T19:19:45.559Z,2.10
2019-03-12T19:24:39.839Z,1.90
2019-03-12T19:29:33.840Z,2.07
2019-03-12T19:34:29.633Z,2.00
2019-03-12T19:39:23.585Z,3.00
2019-03-12T19:44:17.513Z,2.30
2019-03-12T19:49:11.559Z,1.90
2019-03-12T19:54:05.449Z,1.90
2019-03-12T19:58:59.596Z,1.80
2019-03-12T20:03:53.485Z,2.23
2019-03-12T20:08:47.504Z,2.47
2019-03-12T20:14:00.690Z,2.30
2019-03-12T20:19:21.197Z,2.37
2019-03-12T20:30:24.394Z,2.53
2019-03-12T20:35:55.159Z,2.70
2019-03-12T20:41:09.575Z,2.30
2019-03-12T20:46:21.760Z,1.80
2019-03-12T20:51:39.467Z,1.80
2019-03-12T20:56:45.724Z,1.70
2019-03-12T21:02:01.531Z,1.90
2019-03-12T21:07:04.992Z,1.77
2019-03-12T21:12:19.799Z,1.90
2019-03-12T21:17:36.923Z,2.40
2019-03-12T21:23:02.348Z,2.03
2019-03-12T21:28:25.848Z,1.50
2019-03-12T21:33:19.804Z,1.10
2019-03-12T21:38:13.799Z,1.00
2019-03-12T21:43:07.778Z,1.10
2019-03-12T21:48:01.760Z,1.47
2019-03-12T21:52:55.662Z,1.00
2019-03-12T21:57:49.499Z,1.53
2019-03-12T22:02:43.367Z,1.53
2019-03-12T22:07:37.348Z,1.90
2019-03-12T22:12:31.275Z,2.57
2019-03-12T22:17:25.130Z,3.83
2019-03-12T22:22:21.055Z,5.40
2019-03-12T22:27:14.916Z,4.07
2019-03-12T22:32:08.798Z,5.10
2019-03-12T22:37:02.746Z,4.77
2019-03-12T22:41:56.625Z,5.47
2019-03-12T22:46:50.554Z,5.87
2019-03-12T22:51:44.418Z,5.07
2019-03-12T22:56:38.388Z,6.50
2019-03-12T23:01:32.328Z,6.20
2019-03-12T23:06:28.736Z,6.93
2019-03-12T23:11:22.344Z,6.67
2019-03-12T23:16:16.435Z,6.10
2019-03-12T23:21:10.301Z,6.37
2019-03-12T23:26:04.166Z,6.20
2019-03-12T23:30:58.125Z,4.40
2019-03-12T23:35:51.989Z,5.47
2019-03-12T23:40:45.834Z,5.27
2019-03-12T23:45:39.780Z,5.33
2019-03-12T23:50:33.655Z,6.33
2019-03-12T23:55:28.203Z,5.83
